Time;durP1;ratioP1;P1;durP2;ratioP2;P2;SDS_P1;SDS_P2;PMS_P1;PMS_P2;Temp;Humidity;BMP_temperature;BMP_pressure;BME280_temperature;BME280_humidity;BME280_pressure;Samples;Min_cycle;Max_cycle;Signal;HPM_P1;HPM_P2
2022/04/02 00:02:04;;;;;;;19.23;9.40;;;;;;;-1.05;100.00;98678.16;4187425;28;20256;-62
2022/04/02 00:04:31;;;;;;;16.80;9.20;;;;;;;-1.06;100.00;98685.16;4188006;28;21334;-63
2022/04/02 00:06:57;;;;;;;18.50;8.73;;;;;;;-1.03;100.00;98686.72;4189629;28;20264;-64
2022/04/02 00:09:24;;;;;;;17.63;9.47;;;;;;;-0.98;100.00;98679.38;4188799;28;20327;-64
2022/04/02 00:11:50;;;;;;;19.10;9.47;;;;;;;-1.01;100.00;98683.97;4189314;28;21243;-62
2022/04/02 00:14:17;;;;;;;20.30;9.40;;;;;;;-1.02;100.00;98675.31;4183674;28;20358;-64
2022/04/02 00:16:44;;;;;;;18.17;8.67;;;;;;;-1.05;100.00;98683.38;4190042;28;20376;-63
2022/04/02 00:19:10;;;;;;;16.47;9.03;;;;;;;-1.09;100.00;98674.94;4188674;28;20318;-65
2022/04/02 00:21:38;;;;;;;16.73;9.10;;;;;;;-1.19;100.00;98671.38;4204482;28;20240;-62
2022/04/02 00:24:06;;;;;;;19.07;9.17;;;;;;;-1.10;100.00;98669.81;4188135;28;20745;-63
2022/04/02 00:26:34;;;;;;;16.77;8.67;;;;;;;-1.14;100.00;98671.03;4190269;28;20232;-62
2022/04/02 00:29:00;;;;;;;19.63;8.77;;;;;;;-1.14;100.00;98671.03;4175775;28;20244;-64
2022/04/02 00:31:29;;;;;;;17.63;8.40;;;;;;;-1.11;100.00;98670.78;4173749;28;20236;-63
2022/04/02 00:33:56;;;;;;;18.80;9.30;;;;;;;-1.11;100.00;98670.78;4186472;28;20517;-64
2022/04/02 00:36:23;;;;;;;17.53;8.90;;;;;;;-1.25;100.00;98673.59;4188427;28;22044;-62
2022/04/02 00:38:50;;;;;;;19.03;9.67;;;;;;;-1.24;100.00;98667.41;4189717;28;20276;-65
2022/04/02 00:41:16;;;;;;;17.93;8.87;;;;;;;-1.29;100.00;98666.00;4172065;28;20241;-62
2022/04/02 00:44:00;;;;;;;17.00;8.77;;;;;;;-1.20;100.00;98668.88;4193327;28;20239;-61
2022/04/02 00:46:27;;;;;;;16.70;8.77;;;;;;;-1.12;100.00;98669.97;4189387;28;20229;-64
2022/04/02 00:48:54;;;;;;;20.43;9.93;;;;;;;-1.18;100.00;98674.81;4186360;28;20225;-64
2022/04/02 00:51:21;;;;;;;17.53;9.50;;;;;;;-1.15;100.00;98674.56;4186745;28;20224;-64
2022/04/02 00:53:49;;;;;;;16.67;9.57;;;;;;;-1.16;100.00;98673.75;4176262;28;20617;-64
2022/04/02 00:56:16;;;;;;;17.17;9.70;;;;;;;-1.11;100.00;98676.84;4187541;28;20311;-63
2022/04/02 00:58:43;;;;;;;17.27;9.77;;;;;;;-1.13;100.00;98677.91;4186616;28;21817;-64
2022/04/02 01:01:09;;;;;;;17.20;9.57;;;;;;;-1.12;100.00;98674.34;4177473;28;22571;-61
2022/04/02 01:03:36;;;;;;;17.10;8.97;;;;;;;-1.17;100.00;98676.44;4194877;28;20224;-64
2022/04/02 01:06:04;;;;;;;17.43;9.33;;;;;;;-1.16;100.00;98673.75;4195850;28;20392;-65
2022/04/02 01:08:30;;;;;;;17.03;9.60;;;;;;;-1.21;100.00;98668.03;4206417;28;20236;-62
2022/04/02 01:10:58;;;;;;;16.37;9.23;;;;;;;-1.27;100.00;98673.69;4192408;28;20216;-64
2022/04/02 01:13:25;;;;;;;20.00;10.60;;;;;;;-1.30;100.00;98672.16;4190663;28;20605;-62
2022/04/02 01:15:52;;;;;;;17.97;10.17;;;;;;;-1.21;100.00;98680.25;4177574;28;20841;-62
2022/04/02 01:18:18;;;;;;;18.17;10.17;;;;;;;-1.19;100.00;98673.16;4180265;28;20295;-63
2022/04/02 01:20:48;;;;;;;21.93;9.03;;;;;;;-1.26;100.00;98678.00;4189406;28;20288;-64
2022/04/02 01:23:15;;;;;;;20.07;10.20;;;;;;;-1.24;100.00;98673.50;4190973;28;21853;-64
2022/04/02 01:25:42;;;;;;;16.57;9.30;;;;;;;-1.28;100.00;98675.47;4191116;28;20244;-63
2022/04/02 01:28:08;;;;;;;17.67;8.90;;;;;;;-1.29;100.00;98675.59;4172456;28;20248;-63
2022/04/02 01:30:35;;;;;;;15.60;9.10;;;;;;;-1.26;100.00;98667.56;4193763;28;20229;-62
2022/04/02 01:33:02;;;;;;;15.60;8.83;;;;;;;-1.34;100.00;98672.50;4190676;28;23028;-64
2022/04/02 01:35:29;;;;;;;18.03;8.73;;;;;;;-1.38;100.00;98669.28;4194766;28;21231;-62
2022/04/02 01:37:55;;;;;;;16.83;8.77;;;;;;;-1.36;100.00;98671.75;4193579;28;21251;-63
2022/04/02 01:40:22;;;;;;;18.30;8.43;;;;;;;-1.52;100.00;98672.09;4194605;28;21220;-61
2022/04/02 01:42:48;;;;;;;16.03;8.47;;;;;;;-1.45;100.00;98673.28;4202008;28;20641;-64
2022/04/02 01:45:15;;;;;;;17.63;8.13;;;;;;;-1.38;100.00;98674.50;4192504;28;21217;-62
2022/04/02 01:47:42;;;;;;;13.83;7.43;;;;;;;-1.38;100.00;98669.28;4177969;28;21453;-64
2022/04/02 01:50:10;;;;;;;14.37;7.23;;;;;;;-1.35;100.00;98674.28;4203587;28;20662;-62
2022/04/02 01:52:37;;;;;;;12.90;7.60;;;;;;;-1.43;100.00;98674.00;4196315;28;21289;-64
2022/04/02 01:55:05;;;;;;;14.13;7.37;;;;;;;-1.38;100.00;98679.72;4189974;28;20228;-64
2022/04/02 01:57:31;;;;;;;13.60;7.17;;;;;;;-1.46;100.00;98676.84;4198752;28;20248;-63
2022/04/02 01:59:58;;;;;;;14.37;6.90;;;;;;;-1.51;100.00;98673.75;4188729;28;20238;-63
2022/04/02 02:02:26;;;;;;;13.47;7.13;;;;;;;-1.46;100.00;98676.00;4187422;28;20230;-63
2022/04/02 02:04:52;;;;;;;13.23;6.43;;;;;;;-1.55;100.00;98680.94;4161986;28;20263;-61
2022/04/02 02:07:19;;;;;;;14.87;6.70;;;;;;;-1.54;100.00;98681.78;4187404;28;20237;-63
2022/04/02 02:09:46;;;;;;;13.63;6.90;;;;;;;-1.48;100.00;98678.72;4214907;28;21657;-62
2022/04/02 02:12:14;;;;;;;13.30;6.57;;;;;;;-1.61;100.00;98680.56;4190255;28;20244;-60
2022/04/02 02:14:41;;;;;;;12.83;6.00;;;;;;;-1.61;100.00;98686.63;4195208;28;20632;-62
2022/04/02 02:17:07;;;;;;;15.30;6.10;;;;;;;-1.69;100.00;98681.09;4201002;28;21627;-64
2022/04/02 02:19:34;;;;;;;11.03;5.97;;;;;;;-1.58;100.00;98678.56;4210412;28;20240;-63
2022/04/02 02:22:00;;;;;;;14.10;6.30;;;;;;;-1.56;100.00;98678.47;4186771;28;20248;-62
2022/04/02 02:24:28;;;;;;;14.33;6.67;;;;;;;-1.61;100.00;98677.97;4195216;28;20233;-65
2022/04/02 02:26:55;;;;;;;11.67;6.17;;;;;;;-1.71;100.00;98686.47;4182604;28;23660;-63
2022/04/02 02:29:21;;;;;;;14.80;6.60;;;;;;;-1.66;100.00;98680.06;4189070;28;22093;-65
2022/04/02 02:31:48;;;;;;;14.13;6.83;;;;;;;-1.65;100.00;98682.56;4186914;28;20284;-61
2022/04/02 02:36:59;;;;;;;14.20;7.23;;;;;;;-1.49;100.00;98688.31;4186057;28;21377;-63
2022/04/02 02:39:26;;;;;;;11.70;6.67;;;;;;;-1.49;100.00;98679.69;4188162;28;23532;-62
2022/04/02 02:41:52;;;;;;;12.40;6.67;;;;;;;-1.57;100.00;98682.84;4189887;28;20239;-62
2022/04/02 02:44:19;;;;;;;16.73;6.50;;;;;;;-1.61;100.00;98685.78;4192053;28;24003;-62
2022/04/02 02:46:45;;;;;;;11.40;6.60;;;;;;;-1.62;100.00;98681.50;4193433;28;21243;-62
2022/04/02 02:49:12;;;;;;;11.50;6.93;;;;;;;-1.57;100.00;98684.59;4190663;28;20244;-66
2022/04/02 02:51:39;;;;;;;11.73;6.73;;;;;;;-1.59;100.00;98681.28;4184177;28;20230;-63
2022/04/02 02:54:06;;;;;;;10.77;6.27;;;;;;;-1.62;100.00;98684.09;4187453;28;20482;-64
2022/04/02 02:56:32;;;;;;;11.97;6.17;;;;;;;-1.64;100.00;98686.00;4190127;28;20304;-64
2022/04/02 02:58:59;;;;;;;10.27;5.83;;;;;;;-1.72;100.00;98695.19;4194027;28;21723;-65
2022/04/02 03:01:25;;;;;;;12.63;6.40;;;;;;;-1.71;100.00;98689.06;4188303;28;22666;-61
2022/04/02 03:03:52;;;;;;;11.03;6.60;;;;;;;-1.66;100.00;98686.13;4192643;28;22960;-64
2022/04/02 03:06:19;;;;;;;10.90;6.03;;;;;;;-1.66;100.00;98695.69;4200646;28;20260;-62
2022/04/02 03:08:45;;;;;;;11.03;6.37;;;;;;;-1.65;100.00;98692.16;4190271;28;21373;-63
2022/04/02 03:11:12;;;;;;;13.63;6.27;;;;;;;-1.64;100.00;98686.00;4190203;28;20224;-65
2022/04/02 03:13:38;;;;;;;14.03;5.90;;;;;;;-1.74;100.00;98691.88;4189663;28;20240;-62
2022/04/02 03:16:05;;;;;;;12.20;6.03;;;;;;;-1.65;100.00;98686.94;4187529;28;21317;-61
2022/04/02 03:18:32;;;;;;;14.13;6.13;;;;;;;-1.64;100.00;98694.66;4189457;28;21804;-63
2022/04/02 03:20:59;;;;;;;10.57;6.10;;;;;;;-1.73;100.00;98696.16;4188067;28;20284;-65
2022/04/02 03:23:25;;;;;;;11.03;6.17;;;;;;;-1.70;100.00;98692.50;4188405;28;20423;-63
2022/04/02 03:25:52;;;;;;;12.33;6.93;;;;;;;-1.77;100.00;98699.91;4178244;28;20244;-63
2022/04/02 03:28:18;;;;;;;12.83;6.73;;;;;;;-1.79;100.00;98696.59;4193642;28;20228;-63
2022/04/02 03:30:45;;;;;;;13.33;6.53;;;;;;;-1.67;100.00;98688.84;4191084;28;20548;-63
2022/04/02 03:33:13;;;;;;;10.67;6.93;;;;;;;-1.69;100.00;98696.75;4187594;28;20232;-64
2022/04/02 03:35:42;;;;;;;12.57;7.20;;;;;;;-1.67;100.00;98694.03;4189946;28;20221;-64
2022/04/02 03:38:09;;;;;;;13.67;7.67;;;;;;;-1.70;100.00;98688.09;4182283;28;20244;-62
2022/04/02 03:40:35;;;;;;;12.13;6.60;;;;;;;-1.64;100.00;98693.81;4193516;28;20297;-63
2022/04/02 03:43:03;;;;;;;12.50;6.67;;;;;;;-1.85;100.00;98691.84;4177507;28;20240;-63
2022/04/02 03:45:30;;;;;;;12.53;6.53;;;;;;;-1.78;100.00;98690.44;4204351;28;25756;-62
2022/04/02 03:47:57;;;;;;;10.10;6.20;;;;;;;-1.68;100.00;98697.63;4192687;28;20328;-62
2022/04/02 03:50:23;;;;;;;12.43;6.33;;;;;;;-1.73;100.00;98696.16;4191674;28;20237;-62
2022/04/02 03:52:50;;;;;;;13.27;7.23;;;;;;;-1.77;100.00;98693.88;4186317;28;20464;-62
2022/04/02 03:55:16;;;;;;;13.73;6.57;;;;;;;-1.79;100.00;98698.38;4194937;28;20240;-61
2022/04/02 03:57:47;;;;;;;13.10;7.80;;;;;;;-1.72;100.00;98692.59;4188980;28;20237;-64
2022/04/02 04:00:14;;;;;;;12.47;7.37;;;;;;;-1.80;100.00;98694.13;4203311;28;20304;-62
2022/04/02 04:02:41;;;;;;;14.40;7.97;;;;;;;-1.80;100.00;98694.94;4193546;28;20236;-61
2022/04/02 04:05:08;;;;;;;14.27;8.20;;;;;;;-1.83;100.00;98700.34;4191141;28;20861;-62
2022/04/02 04:07:37;;;;;;;14.23;7.97;;;;;;;-1.83;100.00;98697.75;4205966;28;22005;-64
2022/04/02 04:10:05;;;;;;;14.63;8.30;;;;;;;-1.89;100.00;98697.38;4187168;28;23014;-65
2022/04/02 04:12:32;;;;;;;16.67;8.67;;;;;;;-1.93;100.00;98705.38;4177945;28;20255;-63
2022/04/02 04:14:58;;;;;;;14.97;8.77;;;;;;;-1.84;100.00;98703.91;4180604;28;20298;-62
2022/04/02 04:17:25;;;;;;;15.13;8.93;;;;;;;-1.88;100.00;98707.66;4192698;28;20351;-60
2022/04/02 04:19:51;;;;;;;13.17;7.97;;;;;;;-1.86;100.00;98702.34;4206837;28;20933;-63
2022/04/02 04:22:18;;;;;;;13.03;7.97;;;;;;;-1.95;100.00;98696.84;4192224;28;20233;-62
2022/04/02 04:24:44;;;;;;;15.50;8.50;;;;;;;-1.86;100.00;98710.19;4187688;28;22622;-62
2022/04/02 04:27:11;;;;;;;15.93;7.83;;;;;;;-1.88;100.00;98707.66;4187022;28;22178;-62
2022/04/02 04:29:38;;;;;;;15.20;7.90;;;;;;;-1.91;100.00;98700.91;4187289;28;20229;-62
2022/04/02 04:32:06;;;;;;;12.93;7.37;;;;;;;-1.85;100.00;98706.63;4177919;28;20236;-62
2022/04/02 04:34:33;;;;;;;13.20;7.20;;;;;;;-1.91;100.00;98715.72;4192413;28;20299;-62
2022/04/02 04:36:59;;;;;;;10.03;6.50;;;;;;;-1.86;100.00;98718.81;4193674;28;22828;-62
2022/04/02 04:39:26;;;;;;;15.17;6.80;;;;;;;-1.86;100.00;98718.81;4194148;28;20646;-61
2022/04/02 04:41:52;;;;;;;11.40;6.30;;;;;;;-1.94;100.00;98724.59;4194212;28;20264;-61
2022/04/02 04:44:19;;;;;;;13.60;6.57;;;;;;;-1.89;100.00;98721.66;4193022;28;20316;-62
2022/04/02 04:46:46;;;;;;;11.30;5.60;;;;;;;-1.90;100.00;98722.59;4194083;28;21591;-62
2022/04/02 04:49:16;;;;;;;11.17;6.60;;;;;;;-2.03;100.00;98724.41;4191074;28;20313;-61
2022/04/02 04:51:43;;;;;;;10.73;6.13;;;;;;;-2.08;100.00;98735.16;4198415;28;20250;-63
2022/04/02 04:54:09;;;;;;;9.60;5.63;;;;;;;-2.07;100.00;98721.16;4194825;28;21963;-60
2022/04/02 04:56:36;;;;;;;11.13;6.20;;;;;;;-2.11;100.00;98724.94;4208901;28;20231;-62
2022/04/02 04:59:02;;;;;;;10.13;5.70;;;;;;;-2.16;100.00;98730.44;4197383;28;20642;-62
2022/04/02 05:01:29;;;;;;;11.50;6.27;;;;;;;-2.12;100.00;98737.13;4195172;28;21821;-62
2022/04/02 05:03:57;;;;;;;13.03;6.00;;;;;;;-2.00;100.00;98734.59;4200940;28;21834;-63
2022/04/02 05:06:24;;;;;;;10.57;5.90;;;;;;;-1.91;100.00;98739.19;4200394;28;20739;-62
2022/04/02 05:08:50;;;;;;;9.20;6.00;;;;;;;-1.91;100.00;98739.19;4221248;28;20258;-64
2022/04/02 05:11:35;;;;;;;9.57;5.80;;;;;;;-2.01;100.00;98732.97;4197464;28;21104;-62
2022/04/02 05:14:02;;;;;;;10.70;5.33;;;;;;;-2.03;100.00;98738.25;4197705;28;20232;-61
2022/04/02 05:16:29;;;;;;;9.50;5.23;;;;;;;-2.06;100.00;98738.50;4185549;28;20241;-60
2022/04/02 05:18:56;;;;;;;8.77;5.37;;;;;;;-2.00;100.00;98738.03;4191555;28;22139;-63
2022/04/02 05:21:22;;;;;;;11.67;4.77;;;;;;;-1.93;100.00;98741.88;4192680;28;20226;-64
2022/04/02 05:23:49;;;;;;;11.23;5.67;;;;;;;-2.04;100.00;98747.00;4229410;28;20866;-62
2022/04/02 05:26:16;;;;;;;10.00;5.33;;;;;;;-2.09;100.00;98735.25;4208718;28;20242;-63
2022/04/02 05:28:48;;;;;;;10.33;5.17;;;;;;;-2.09;100.00;98745.69;4194473;28;20437;-60
2022/04/02 05:31:14;;;;;;;8.50;5.33;;;;;;;-2.00;100.00;98747.63;4197091;28;20276;-66
2022/04/02 05:33:41;;;;;;;14.90;5.60;;;;;;;-1.97;100.00;98744.81;4191272;28;20236;-62
2022/04/02 05:36:08;;;;;;;9.80;4.73;;;;;;;-2.01;100.00;98744.22;4191816;28;20243;-62
2022/04/02 05:38:35;;;;;;;11.60;4.90;;;;;;;-2.03;100.00;98751.28;4199074;28;20292;-61
2022/04/02 05:41:02;;;;;;;24.60;12.50;;;;;;;-1.99;100.00;98752.75;4197919;28;20240;-61
2022/04/02 05:43:29;;;;;;;8.00;4.97;;;;;;;-1.91;100.00;98749.59;4212617;28;20240;-61
2022/04/02 05:45:56;;;;;;;8.40;4.73;;;;;;;-1.91;100.00;98749.59;4183328;28;20224;-65
2022/04/02 05:48:24;;;;;;;8.87;5.10;;;;;;;-1.83;100.00;98755.09;4188485;28;20233;-61
2022/04/02 05:50:51;;;;;;;8.53;4.50;;;;;;;-1.80;100.00;98762.72;4197470;28;20696;-62
2022/04/02 05:53:17;;;;;;;8.90;4.57;;;;;;;-1.94;100.00;98755.88;4185690;28;20237;-63
2022/04/02 05:55:44;;;;;;;8.27;4.40;;;;;;;-1.95;100.00;98755.97;4206709;28;20300;-62
2022/04/02 05:58:12;;;;;;;7.23;4.33;;;;;;;-1.89;100.00;98762.53;4195597;28;20258;-64
2022/04/02 06:00:39;;;;;;;9.80;4.93;;;;;;;-1.84;100.00;98766.47;4196614;28;20416;-63
2022/04/02 06:03:05;;;;;;;8.27;5.03;;;;;;;-1.81;100.00;98768.03;4192617;28;20237;-63
2022/04/02 06:05:32;;;;;;;9.60;4.90;;;;;;;-1.80;100.00;98767.94;4194616;28;20240;-63
2022/04/02 06:07:59;;;;;;;11.00;4.93;;;;;;;-1.75;100.00;98775.44;4185496;28;20239;-62
2022/04/02 06:10:26;;;;;;;9.53;5.10;;;;;;;-1.79;100.00;98773.97;4210034;28;20228;-62
2022/04/02 06:12:53;;;;;;;11.17;5.13;;;;;;;-1.78;100.00;98770.41;4193381;28;20237;-65
2022/04/02 06:15:20;;;;;;;11.90;6.00;;;;;;;-1.74;100.00;98783.13;4200821;28;20237;-63
2022/04/02 06:17:46;;;;;;;9.10;4.63;;;;;;;-1.76;100.00;98773.75;4191180;28;21689;-65
2022/04/02 06:20:13;;;;;;;10.50;5.77;;;;;;;-1.75;100.00;98778.03;4192389;28;20236;-63
2022/04/02 06:22:40;;;;;;;9.23;4.90;;;;;;;-1.73;100.00;98782.22;4205787;28;22837;-61
2022/04/02 06:25:08;;;;;;;14.47;6.50;;;;;;;-1.91;100.00;98778.28;4178689;28;23860;-65
2022/04/02 06:27:44;;;;;;;9.37;5.43;;;;;;;-1.80;100.00;98783.59;4197246;28;21492;-63
2022/04/02 06:30:13;;;;;;;9.10;5.20;;;;;;;-1.74;100.00;98782.31;4170475;28;20442;-65
2022/04/02 06:32:41;;;;;;;9.37;5.30;;;;;;;-1.87;100.00;98792.78;4173902;28;20231;-64
2022/04/02 06:35:08;;;;;;;8.87;5.00;;;;;;;-1.92;100.00;98787.03;4193320;28;20329;-65
2022/04/02 06:37:36;;;;;;;7.83;4.70;;;;;;;-1.79;100.00;98794.84;4198387;28;20241;-65
2022/04/02 06:40:04;;;;;;;10.30;4.63;;;;;;;-1.72;100.00;98799.50;4192553;28;20233;-65
2022/04/02 06:42:31;;;;;;;9.67;5.13;;;;;;;-1.71;100.00;98797.72;4184782;28;20246;-60
2022/04/02 06:44:57;;;;;;;9.50;4.80;;;;;;;-1.64;100.00;98803.34;4176292;28;20716;-64
2022/04/02 06:47:29;;;;;;;13.33;6.03;;;;;;;-1.68;100.00;98801.91;4181082;28;22492;-63
2022/04/02 06:49:57;;;;;;;11.63;6.30;;;;;;;-1.77;100.00;98806.81;4188095;28;23801;-63
2022/04/02 06:52:23;;;;;;;11.63;5.80;;;;;;;-1.72;100.00;98802.13;4187462;28;22380;-63
2022/04/02 06:54:50;;;;;;;11.70;5.33;;;;;;;-1.68;100.00;98813.19;4191162;28;20229;-67
2022/04/02 06:57:20;;;;;;;10.13;5.13;;;;;;;-1.56;100.00;98811.47;4190063;28;25622;-66
2022/04/02 06:59:47;;;;;;;8.57;4.73;;;;;;;-1.43;100.00;98809.66;4183530;28;22969;-74
2022/04/02 07:02:15;;;;;;;10.33;5.37;;;;;;;-1.47;100.00;98818.66;4181693;28;21526;-60
2022/04/02 07:04:42;;;;;;;8.73;4.77;;;;;;;-1.54;100.00;98809.59;4206800;28;21232;-64
2022/04/02 07:07:09;;;;;;;9.53;4.97;;;;;;;-1.44;100.00;98821.03;4185535;28;20221;-67
2022/04/02 07:09:36;;;;;;;8.00;4.10;;;;;;;-1.40;100.00;98812.06;4192827;28;20232;-65
2022/04/02 07:12:02;;;;;;;8.73;4.63;;;;;;;-1.32;100.00;98807.09;4173974;28;20236;-62
2022/04/02 07:14:29;;;;;;;8.33;4.83;;;;;;;-1.16;100.00;98813.84;4196226;28;22997;-64
2022/04/02 07:16:56;;;;;;;8.63;4.40;;;;;;;-1.16;100.00;98813.84;4208488;28;21256;-63
2022/04/02 07:19:23;;;;;;;10.97;5.37;;;;;;;-1.18;100.00;98818.34;4174168;28;20319;-63
2022/04/02 07:21:51;;;;;;;10.10;4.70;;;;;;;-1.24;100.00;98817.03;4197555;28;20232;-63
2022/04/02 07:24:19;;;;;;;8.90;4.70;;;;;;;-1.21;100.00;98813.34;4179754;28;21522;-64
2022/04/02 07:26:46;;;;;;;10.23;4.57;;;;;;;-1.27;100.00;98812.00;4178945;28;21168;-63
2022/04/02 07:29:15;;;;;;;9.73;4.43;;;;;;;-1.11;100.00;98811.72;4186093;28;20292;-66
2022/04/02 07:31:44;;;;;;;7.27;4.10;;;;;;;-1.09;100.00;98812.47;4204461;28;20825;-63
2022/04/02 07:34:16;;;;;;;8.40;4.30;;;;;;;-1.11;99.99;98814.34;4194058;28;20224;-63
2022/04/02 07:37:08;;;;;;;10.00;4.60;;;;;;;-1.23;100.00;98807.41;4213394;28;20228;-63
2022/04/02 07:39:57;;;;;;;8.43;4.83;;;;;;;-1.08;100.00;98817.56;4198626;28;20241;-64
2022/04/02 07:42:26;;;;;;;12.87;4.33;;;;;;;-0.90;100.00;98825.81;4171706;28;20233;-69
2022/04/02 07:45:02;;;;;;;10.17;4.07;;;;;;;-1.07;99.22;98823.63;4201222;28;20388;-64
2022/04/02 07:47:32;;;;;;;9.67;4.33;;;;;;;-0.90;99.33;98825.81;4177470;28;23020;-61
2022/04/02 07:50:03;;;;;;;10.67;4.93;;;;;;;-0.93;98.63;98828.66;4192932;28;20241;-60
2022/04/02 07:52:30;;;;;;;10.17;5.10;;;;;;;-1.00;99.00;98824.03;4176537;28;21620;-66
2022/04/02 07:55:07;;;;;;;8.80;4.60;;;;;;;-0.91;99.06;98833.78;4169810;28;20231;-63
2022/04/02 07:57:41;;;;;;;9.47;4.33;;;;;;;-0.73;98.80;98831.59;4199266;28;25853;-65
2022/04/02 08:00:15;;;;;;;9.77;4.23;;;;;;;-0.86;97.70;98832.50;4172696;28;20236;-63
2022/04/02 08:02:43;;;;;;;7.63;4.20;;;;;;;-0.82;98.25;98837.50;4204269;28;23114;-62
2022/04/02 08:05:16;;;;;;;11.40;4.60;;;;;;;-0.62;98.07;98839.47;4206922;28;20299;-62
2022/04/02 08:07:57;;;;;;;10.97;4.70;;;;;;;-0.67;97.90;98836.38;4181270;28;21254;-64
2022/04/02 08:10:25;;;;;;;10.47;5.03;;;;;;;-0.68;97.15;98838.16;4211951;28;20299;-63
2022/04/02 08:12:55;;;;;;;8.73;4.40;;;;;;;-0.50;96.85;98843.78;4173574;28;20262;-63
2022/04/02 08:15:23;;;;;;;8.63;4.57;;;;;;;-0.46;96.27;98842.63;4168939;28;20832;-63
2022/04/02 08:17:53;;;;;;;8.07;4.83;;;;;;;-0.59;96.52;98841.03;4195511;28;20264;-63
2022/04/02 08:20:21;;;;;;;7.83;4.87;;;;;;;-0.51;96.76;98852.56;4192969;28;23127;-65
2022/04/02 08:22:48;;;;;;;10.07;4.30;;;;;;;-0.59;96.67;98854.09;4198296;28;20224;-63
2022/04/02 08:25:35;;;;;;;10.43;4.80;;;;;;;-0.69;96.90;98852.16;4205008;28;20356;-62
2022/04/02 08:28:13;;;;;;;14.00;5.20;;;;;;;-0.53;97.23;98849.25;4203526;28;22604;-65
2022/04/02 08:30:55;;;;;;;8.60;4.73;;;;;;;-0.46;97.11;98854.84;4208082;28;20272;-63
2022/04/02 08:33:34;;;;;;;15.17;4.60;;;;;;;-0.42;96.21;98848.47;4211856;28;20285;-61
2022/04/02 08:36:09;;;;;;;10.30;5.00;;;;;;;-0.39;96.66;98855.22;4190207;28;20240;-66
2022/04/02 08:39:03;;;;;;;8.40;4.43;;;;;;;-0.30;96.94;98852.75;4225771;28;22744;-63
2022/04/02 08:41:54;;;;;;;14.27;5.13;;;;;;;-0.40;96.51;98864.00;4229938;28;20266;-62
2022/04/02 08:44:50;;;;;;;11.70;4.80;;;;;;;-0.43;96.19;98863.28;4205615;28;20246;-67
2022/04/02 08:47:43;;;;;;;8.67;4.70;;;;;;;-0.30;96.98;98859.78;4213568;28;21010;-68
2022/04/02 08:50:10;;;;;;;12.33;5.30;;;;;;;-0.41;95.60;98862.34;4203798;28;20235;-65
2022/04/02 08:52:52;;;;;;;13.17;5.20;;;;;;;-0.51;96.90;98857.81;4207890;28;20248;-65
2022/04/02 08:55:20;;;;;;;9.57;4.57;;;;;;;-0.44;96.16;98869.47;4166507;28;20244;-67
2022/04/02 08:58:02;;;;;;;9.43;5.07;;;;;;;-0.15;95.68;98873.47;4208185;28;20307;-67
2022/04/02 09:00:35;;;;;;;10.53;5.23;;;;;;;-0.04;95.95;98871.69;4219193;28;25824;-65
2022/04/02 09:03:35;;;;;;;10.73;5.30;;;;;;;0.08;94.92;98877.78;4201169;28;20360;-69
2022/04/02 09:06:16;;;;;;;10.23;4.93;;;;;;;-0.01;94.69;98878.47;4212335;28;20260;-70
2022/04/02 09:09:05;;;;;;;12.23;6.03;;;;;;;0.06;94.34;98882.28;4189386;28;20220;-65
2022/04/02 09:12:00;;;;;;;9.27;5.27;;;;;;;0.06;94.58;98878.84;4205268;28;23000;-66
2022/04/02 09:14:36;;;;;;;8.50;5.07;;;;;;;0.00;94.05;98880.16;4236193;28;20240;-64
2022/04/02 09:17:19;;;;;;;9.20;5.47;;;;;;;-0.01;94.49;98881.91;4181948;28;20308;-63
2022/04/02 09:20:14;;;;;;;9.53;5.33;;;;;;;0.23;94.96;98888.84;4234645;28;22170;-64
2022/04/02 09:23:15;;;;;;;9.33;5.60;;;;;;;0.08;94.10;98887.41;4213507;28;20275;-76
2022/04/02 09:26:19;;;;;;;11.47;5.57;;;;;;;0.10;95.44;98888.13;4234827;28;20410;-62
2022/04/02 09:29:17;;;;;;;12.63;5.87;;;;;;;0.30;95.01;98890.03;4227398;28;20280;-62
2022/04/02 09:32:06;;;;;;;10.23;5.30;;;;;;;0.28;92.88;98889.34;4203378;28;20275;-66
2022/04/02 09:35:11;;;;;;;10.20;5.83;;;;;;;0.36;93.64;98888.75;4190908;28;20239;-63
2022/04/02 09:38:09;;;;;;;11.20;5.83;;;;;;;0.71;93.86;98888.63;4199125;28;20237;-63
2022/04/02 09:40:42;;;;;;;13.40;7.23;;;;;;;0.92;93.98;98880.84;4216420;28;20497;-64
2022/04/02 09:43:26;;;;;;;11.10;6.40;;;;;;;0.55;92.30;98882.91;4197104;28;20640;-60
2022/04/02 09:46:06;;;;;;;9.33;5.97;;;;;;;0.83;94.23;98892.03;4184446;28;20482;-62
2022/04/02 09:48:48;;;;;;;11.37;6.63;;;;;;;0.79;93.19;98890.63;4200711;28;20233;-60
2022/04/02 09:51:16;;;;;;;14.07;6.30;;;;;;;1.01;92.65;98889.75;4193950;28;20237;-65
2022/04/02 09:53:54;;;;;;;11.73;7.33;;;;;;;1.41;93.47;98895.25;4190124;28;20578;-66
2022/04/02 09:56:26;;;;;;;14.57;7.27;;;;;;;1.54;91.52;98897.69;4190920;28;20503;-63
2022/04/02 09:59:04;;;;;;;11.97;6.90;;;;;;;1.60;91.85;98897.19;4193806;28;21712;-64
2022/04/02 10:01:53;;;;;;;12.43;6.77;;;;;;;1.81;91.01;98901.63;4191313;28;21252;-65
2022/04/02 10:04:48;;;;;;;11.33;5.73;;;;;;;1.73;89.69;98901.41;4183847;28;20243;-66
2022/04/02 10:07:48;;;;;;;12.90;6.10;;;;;;;1.48;89.73;98901.63;4197384;28;21150;-68
2022/04/02 10:10:15;;;;;;;13.47;5.70;;;;;;;1.53;89.46;98890.78;4196394;28;20801;-64
2022/04/02 10:12:46;;;;;;;13.27;6.50;;;;;;;1.61;89.57;98901.47;4221125;28;20233;-66
2022/04/02 10:15:14;;;;;;;10.77;5.90;;;;;;;1.65;89.54;98905.50;4192548;28;21616;-64
2022/04/02 10:17:43;;;;;;;12.17;6.03;;;;;;;1.61;88.99;98906.69;4206049;28;20733;-66
2022/04/02 10:20:13;;;;;;;11.47;5.57;;;;;;;1.81;90.02;98901.63;4185460;28;20241;-68
2022/04/02 10:22:45;;;;;;;13.80;6.67;;;;;;;1.66;88.23;98894.06;4209556;28;22108;-71
2022/04/02 10:25:14;;;;;;;12.93;6.27;;;;;;;1.46;89.14;98900.09;4188229;28;21829;-64
2022/04/02 10:27:42;;;;;;;12.07;6.73;;;;;;;1.47;91.08;98901.75;4214533;28;21484;-66
2022/04/02 10:30:11;;;;;;;12.20;6.50;;;;;;;1.89;91.00;98901.81;4194229;28;20256;-65
2022/04/02 10:33:44;;;;;;;12.63;6.40;;;;;;;2.25;90.59;98912.81;4185748;28;20511;-63
2022/04/02 10:35:46;;;;;;;17.83;6.93;;;;;;;2.41;88.77;98910.56;4200428;28;20237;-68
2022/04/02 10:38:36;;;;;;;11.67;5.70;;;;;;;2.59;89.66;98913.38;4212419;28;21527;-63
2022/04/02 10:41:04;;;;;;;11.43;5.80;;;;;;;2.74;87.63;98913.88;4198319;28;20239;-64
2022/04/02 10:43:35;;;;;;;13.43;6.17;;;;;;;3.00;87.46;98913.38;4222361;28;20294;-63
2022/04/02 10:46:06;;;;;;;11.03;6.27;;;;;;;3.05;85.40;98916.47;4223954;28;20301;-62
2022/04/02 10:48:49;;;;;;;9.67;5.93;;;;;;;2.86;85.50;98917.25;4202270;28;20244;-63
2022/04/02 10:51:23;;;;;;;13.20;6.50;;;;;;;2.82;87.04;98919.28;4172955;28;20324;-64
2022/04/02 10:54:00;;;;;;;12.23;6.70;;;;;;;3.03;87.06;98923.63;4193985;28;22612;-65
2022/04/02 10:56:47;;;;;;;13.63;6.77;;;;;;;3.13;85.93;98924.47;4187943;28;20248;-63
2022/04/02 10:59:15;;;;;;;13.13;6.50;;;;;;;3.24;85.15;98923.56;4189153;28;20249;-63
2022/04/02 11:01:44;;;;;;;11.60;6.27;;;;;;;3.38;84.09;98923.16;4167681;28;23325;-64
2022/04/02 11:04:30;;;;;;;14.57;7.03;;;;;;;3.47;84.30;98914.44;4203484;28;21400;-63
2022/04/02 11:06:58;;;;;;;16.23;7.90;;;;;;;3.59;83.02;98913.34;4199202;28;21432;-61
2022/04/02 11:09:41;;;;;;;12.40;6.60;;;;;;;3.64;80.92;98915.56;4190835;28;20250;-63
2022/04/02 11:12:15;;;;;;;14.30;6.70;;;;;;;3.88;82.61;98919.56;4174944;28;22062;-64
2022/04/02 11:14:43;;;;;;;12.90;6.57;;;;;;;3.85;79.95;98919.84;4195811;28;21040;-64
2022/04/02 11:17:32;;;;;;;14.20;7.57;;;;;;;3.87;81.43;98913.47;4196913;28;20237;-63
2022/04/02 11:20:12;;;;;;;12.70;6.70;;;;;;;4.11;81.55;98918.28;4179020;28;21006;-65
2022/04/02 11:22:50;;;;;;;13.40;6.23;;;;;;;3.79;77.85;98908.91;4207721;28;20232;-65
2022/04/02 11:25:28;;;;;;;15.20;6.97;;;;;;;3.93;78.92;98910.28;4193159;28;20236;-72
2022/04/02 11:28:08;;;;;;;18.40;7.57;;;;;;;4.12;77.90;98916.47;4191073;28;21341;-64
2022/04/02 11:30:37;;;;;;;14.60;6.47;;;;;;;4.08;74.72;98915.94;4222607;28;20237;-62
2022/04/02 11:33:09;;;;;;;17.07;6.57;;;;;;;4.14;74.30;98912.72;4189146;28;20308;-65
2022/04/02 11:35:44;;;;;;;15.90;6.33;;;;;;;4.07;72.51;98909.00;4207762;28;20227;-63
2022/04/02 11:38:23;;;;;;;12.77;6.33;;;;;;;4.05;71.97;98910.97;4188599;28;20241;-65
2022/04/02 11:40:58;;;;;;;12.43;5.80;;;;;;;3.99;69.49;98914.16;4185310;28;20298;-64
2022/04/02 11:43:39;;;;;;;9.90;5.27;;;;;;;4.13;69.33;98916.34;4193461;28;20234;-62
2022/04/02 11:46:09;;;;;;;10.87;5.30;;;;;;;3.90;66.67;98917.63;4182917;28;20225;-64